地図

経路データ

SID SEASON NUMBER BASIN SUBBASIN NAME ISO_TIME NATURE LAT LON WMO_WIND WMO_PRES WMO_AGENCY TRACK_TYPE DIST2LAND LANDFALL IFLAG USA_AGENCY USA_ATCF_ID USA_LAT USA_LON USA_RECORD USA_STATUS USA_WIND USA_PRES USA_SSHS USA_R34_NE USA_R34_SE USA_R34_SW USA_R34_NW USA_R50_NE USA_R50_SE USA_R50_SW USA_R50_NW USA_R64_NE USA_R64_SE USA_R64_SW USA_R64_NW USA_POCI USA_ROCI USA_RMW USA_EYE TOKYO_LAT TOKYO_LON TOKYO_GRADE TOKYO_WIND TOKYO_PRES TOKYO_R50_DIR TOKYO_R50_LONG TOKYO_R50_SHORT TOKYO_R30_DIR TOKYO_R30_LONG TOKYO_R30_SHORT TOKYO_LAND CMA_LAT CMA_LON CMA_CAT CMA_WIND CMA_PRES HKO_LAT HKO_LON HKO_CAT HKO_WIND HKO_PRES NEWDELHI_LAT NEWDELHI_LON NEWDELHI_GRADE NEWDELHI_WIND NEWDELHI_PRES NEWDELHI_CI NEWDELHI_DP NEWDELHI_POCI REUNION_LAT REUNION_LON REUNION_TYPE REUNION_WIND REUNION_PRES REUNION_TNUM REUNION_CI REUNION_RMW REUNION_R34_NE REUNION_R34_SE REUNION_R34_SW REUNION_R34_NW REUNION_R50_NE REUNION_R50_SE REUNION_R50_SW REUNION_R50_NW REUNION_R64_NE REUNION_R64_SE REUNION_R64_SW REUNION_R64_NW BOM_LAT BOM_LON BOM_TYPE BOM_WIND BOM_PRES BOM_TNUM BOM_CI BOM_RMW BOM_R34_NE BOM_R34_SE BOM_R34_SW BOM_R34_NW BOM_R50_NE BOM_R50_SE BOM_R50_SW BOM_R50_NW BOM_R64_NE BOM_R64_SE BOM_R64_SW BOM_R64_NW BOM_ROCI BOM_POCI BOM_EYE BOM_POS_METHOD BOM_PRES_METHOD NADI_LAT NADI_LON NADI_CAT NADI_WIND NADI_PRES WELLINGTON_LAT WELLINGTON_LON WELLINGTON_WIND WELLINGTON_PRES DS824_LAT DS824_LON DS824_STAGE DS824_WIND DS824_PRES TD9636_LAT TD9636_LON TD9636_STAGE TD9636_WIND TD9636_PRES TD9635_LAT TD9635_LON TD9635_WIND TD9635_PRES TD9635_ROCI NEUMANN_LAT NEUMANN_LON NEUMANN_CLASS NEUMANN_WIND NEUMANN_PRES MLC_LAT MLC_LON MLC_CLASS MLC_WIND MLC_PRES USA_GUST BOM_GUST BOM_GUST_PER REUNION_GUST REUNION_GUST_PER USA_SEAHGT USA_SEARAD_NE USA_SEARAD_SE USA_SEARAD_SW USA_SEARAD_NW STORM_SPEED STORM_DIR
1912017S12054 1912 3 SI MM NOT_NAMED 1912-01-17 06:00:00 NR -12.4000 54.2000 reunion main 469 455 _____O________ -1 -12.4000 54.2000 99 9.90000 4 221
1912017S12054 1912 3 SI MM NOT_NAMED 1912-01-17 09:00:00 NR -12.5549 54.0616 main 453 429 _____P________ -1 -12.5549 54.0616 99 4 221
1912017S12054 1912 3 SI MM NOT_NAMED 1912-01-17 12:00:00 NR -12.7140 53.9208 main 429 413 _____P________ -1 -12.7140 53.9208 99 4 220
1912017S12054 1912 3 SI MM NOT_NAMED 1912-01-17 15:00:00 NR -12.8817 53.7755 main 413 402 _____P________ -1 -12.8817 53.7755 99 3 223
1912017S12054 1912 3 SI MM NOT_NAMED 1912-01-17 18:00:00 NR -12.9298 53.7186 main 402 386 _____P____O___ -1 -13.0623 53.6232 99 -12.4000 54.1000 2 3 222
1912017S12054 1912 3 SI MM NOT_NAMED 1912-01-17 21:00:00 NR -13.1037 53.5692 main 386 361 _____P____P___ -1 -13.2601 53.4619 99 -12.7910 53.7837 2 5 219
1912017S12054 1912 3 SI MM NOT_NAMED 1912-01-18 00:00:00 NR -13.3491 53.3682 main 361 335 _____P____P___ -1 -13.4795 53.2892 99 -13.1754 53.4735 2 7 218
1912017S12054 1912 3 SI MM NOT_NAMED 1912-01-18 03:00:00 NR -13.6359 53.1396 main 325 296 _____P____P___ -1 -13.7246 53.1026 99 -13.5471 53.1765 2 8 217
1912017S12054 1912 3 SI MM NOT_NAMED 1912-01-18 06:00:00 TS -13.9444 52.9000 reunion main 296 261 _____O___OO___ -1 -14.0000 52.9000 99 9.90000 -13.9000 52.9000 TC 35 -13.9000 52.9000 2 8 217
1912017S12054 1912 3 SI MM NOT_NAMED 1912-01-18 09:00:00 TS -14.2535 52.6597 main 257 215 _____P___PP___ -1 -14.3077 52.6803 99 -14.1901 52.6401 TC 35 -14.2311 52.6490 2 8 216
1912017S12054 1912 3 SI MM NOT_NAMED 1912-01-18 12:00:00 TS -14.5694 52.4249 main 215 185 _____P___OP___ -1 -14.6411 52.4489 99 -14.5000 52.4000 TC 35 -14.5498 52.4194 2 8 214
1912017S12054 1912 3 SI MM NOT_NAMED 1912-01-18 15:00:00 TS -14.9009 52.2034 main 185 161 _____P___PP___ -1 -14.9918 52.2124 99 -14.8425 52.1924 TC 35 -14.8686 52.2052 2 8 211
1912017S12054 1912 3 SI MM NOT_NAMED 1912-01-18 18:00:00 TS -15.2503 51.9926 main 160 139 _____P___OO___ -1 -15.3509 51.9779 99 -15.2000 52.0000 TC 35 -15.2000 52.0000 2 8 210
1912017S12054 1912 3 SI MM NOT_NAMED 1912-01-18 21:00:00 TS -15.6151 51.7736 main 141 126 _____P___PP___ -1 -15.7098 51.7523 99 -15.5425 51.7999 TC 35 -15.5931 51.7687 2 8 209
1912017S12054 1912 3 SI MM NOT_NAMED 1912-01-19 00:00:00 TS -15.9850 51.5635 main 135 125 _____P___OP___ -1 -16.0600 51.5427 99 -15.9000 51.6000 TC 35 -15.9950 51.5479 2 9 208
1912017S12054 1912 3 SI MM NOT_NAMED 1912-01-19 03:00:00 TS -16.3658 51.3623 main 135 125 _____P___PP___ -1 -16.3929 51.3562 99 -16.3300 51.3776 TC 35 -16.3744 51.3531 2 8 206
1912017S12054 1912 3 SI MM NOT_NAMED 1912-01-19 06:00:00 TS -16.7000 51.2000 reunion main 132 131 _____O___OO___ -1 -16.7000 51.2000 99 9.90000 -16.7000 51.2000 TC 35 -16.7000 51.2000 2 6 204
1912017S12054 1912 3 SI MM NOT_NAMED 1912-01-19 09:00:00 TS -16.9209 51.1056 main 138 138 _____P___PP___ -1 -16.9546 51.0870 99 -16.8800 51.1273 TC 35 -16.9283 51.1024 2 4 200
1912017S12054 1912 3 SI MM NOT_NAMED 1912-01-19 12:00:00 TS -17.0963 51.0499 main 132 132 _____P___OP___ -1 -17.1865 51.0026 99 -17.0000 51.1000 TC 35 -17.1023 51.0470 2 4 195
1912017S12054 1912 3 SI MM NOT_NAMED 1912-01-19 15:00:00 TS -17.2807 51.0039 main 139 139 _____P___PP___ -1 -17.3994 50.9434 99 -17.1925 51.0500 TC 35 -17.2502 51.0181 2 4 192
1912017S12054 1912 3 SI MM NOT_NAMED 1912-01-19 18:00:00 TS -17.4656 50.9686 main 149 147 _____P___OO___ -1 -17.5967 50.9059 99 -17.4000 51.0000 TC 35 -17.4000 51.0000 2 4 190
1912017S12054 1912 3 SI MM NOT_NAMED 1912-01-19 21:00:00 TS -17.6583 50.9309 main 148 148 _____P___PP___ -1 -17.7819 50.8863 99 -17.6000 50.9425 TC 35 -17.5928 50.9637 2 4 189
1912017S12054 1912 3 SI MM NOT_NAMED 1912-01-20 00:00:00 TS -17.8504 50.9054 main 149 149 _____P___OP___ -1 -17.9586 50.8813 99 -17.8000 50.9000 TC 35 -17.7925 50.9350 2 4 186
1912017S12054 1912 3 SI MM NOT_NAMED 1912-01-20 03:00:00 TS -18.0420 50.8978 main 151 151 _____P___PP___ -1 -18.1301 50.8870 99 -18.0000 50.8925 TC 35 -17.9959 50.9137 2 4 183
1912017S12054 1912 3 SI MM NOT_NAMED 1912-01-20 06:00:00 TS -18.2333 50.9000 reunion main 158 158 _____O___OO___ -1 -18.3000 50.9000 99 9.90000 -18.2000 50.9000 TC 35 -18.2000 50.9000 2 4 0
1912017S12054 1912 3 SI MM NOT_NAMED 1912-01-20 09:00:00 TS -18.4326 50.8961 main 159 159 _____P___PP___ -1 -18.4938 50.8997 99 -18.4000 50.9000 TC 35 -18.4041 50.8887 2 4 182
1912017S12054 1912 3 SI MM NOT_NAMED 1912-01-20 12:00:00 TS -18.6307 50.8982 main 164 164 _____P___OP___ -1 -18.6846 50.9097 99 -18.6000 50.9000 TC 35 -18.6075 50.8850 2 4 178
1912017S12054 1912 3 SI MM NOT_NAMED 1912-01-20 15:00:00 TS -18.8261 50.9058 main 171 171 _____P___PP___ -1 -18.8712 50.9285 99 -18.8000 50.9000 TC 35 -18.8072 50.8888 2 4 176
1912017S12054 1912 3 SI MM NOT_NAMED 1912-01-20 18:00:00 TS -19.0175 50.9182 main 181 181 _____P___OO___ -1 -19.0525 50.9546 99 -19.0000 50.9000 TC 35 -19.0000 50.9000 2 4 0
1912017S12054 1912 3 SI MM NOT_NAMED 1912-01-20 21:00:00 TS -19.2083 50.9309 main 187 187 _____P___PP___ -1 -19.2271 50.9864 99 -19.2075 50.8925 TC 35 -19.1903 50.9137 2 4 174
1912017S12054 1912 3 SI MM NOT_NAMED 1912-01-21 00:00:00 TS -19.3888 50.9524 main 204 204 _____P___OP___ -1 -19.3940 51.0223 99 -19.4000 50.9000 TC 35 -19.3725 50.9350 2 3 171
1912017S12054 1912 3 SI MM NOT_NAMED 1912-01-21 03:00:00 TS -19.5510 50.9890 main 210 210 _____P___PP___ -1 -19.5521 51.0607 99 -19.5575 50.9425 TC 35 -19.5434 50.9638 2 3 165
1912017S12054 1912 3 SI MM NOT_NAMED 1912-01-21 06:00:00 TS -19.7000 51.0333 reunion main 214 214 _____O___OO___ -1 -19.7000 51.1000 99 9.90000 -19.7000 51.0000 TC 35 -19.7000 51.0000 2 3 164
1912017S12054 1912 3 SI MM NOT_NAMED 1912-01-21 09:00:00 TS -19.8436 51.0747 main 228 228 _____P___PP___ -1 -19.8300 51.1272 99 -19.8575 51.0500 TC 35 -19.8434 51.0469 2 3 164
1912017S12054 1912 3 SI MM NOT_NAMED 1912-01-21 12:00:00 TS -19.9737 51.1186 main 237 237 _____P___OP___ -1 -19.9487 51.1559 99 -20.0000 51.1000 TC 35 -19.9725 51.1000 2 3 161
1912017S12054 1912 3 SI MM NOT_NAMED 1912-01-21 15:00:00 TS -20.0857 51.1658 main 250 250 _____P___PP___ -1 -20.0593 51.1867 99 -20.1075 51.1575 TC 35 -20.0903 51.1531 2 2 161
1912017S12054 1912 3 SI MM NOT_NAMED 1912-01-21 18:00:00 TS -20.1883 51.2068 main 251 251 _____P___OO___ -1 -20.1649 51.2204 99 -20.2000 51.2000 TC 35 -20.2000 51.2000 2 2 166
1912017S12054 1912 3 SI MM NOT_NAMED 1912-01-21 21:00:00 TS -20.2892 51.2273 main 252 252 _____P___PP___ -1 -20.2687 51.2578 99 -20.3000 51.2000 TC 35 -20.2990 51.2242 2 2 167
1912017S12054 1912 3 SI MM NOT_NAMED 1912-01-22 00:00:00 TS -20.3887 51.2475 main 254 254 _____P___OP___ -1 -20.3737 51.2997 99 -20.4000 51.2000 TC 35 -20.3925 51.2426 2 2 166
1912017S12054 1912 3 SI MM NOT_NAMED 1912-01-22 03:00:00 TS -20.4884 51.2847 main 266 266 _____P___PP___ -1 -20.4831 51.3468 99 -20.4925 51.2425 TC 35 -20.4897 51.2648 2 2 158
1912017S12054 1912 3 SI MM NOT_NAMED 1912-01-22 06:00:00 TS -20.6000 51.3333 reunion main 269 269 _____O___OO___ -1 -20.6000 51.4000 99 9.90000 -20.6000 51.3000 TC 35 -20.6000 51.3000 2 3 160
1912017S12054 1912 3 SI MM NOT_NAMED 1912-01-22 09:00:00 TS -20.7322 51.3756 main 282 282 _____P___PP___ -1 -20.7184 51.4238 99 -20.7425 51.3425 TC 35 -20.7356 51.3606 2 3 163
1912017S12054 1912 3 SI MM NOT_NAMED 1912-01-22 12:00:00 TS -20.8753 51.4281 main 288 288 _____P___OP___ -1 -20.8410 51.4492 99 -20.9000 51.4000 TC 35 -20.8850 51.4350 2 3 158
1912017S12054 1912 3 SI MM NOT_NAMED 1912-01-22 15:00:00 TS -21.0207 51.4999 main 302 302 _____P___PP___ -1 -20.9702 51.4828 99 -21.0500 51.5000 TC 35 -21.0419 51.5168 2 3 155
1912017S12054 1912 3 SI MM NOT_NAMED 1912-01-22 18:00:00 TS -21.1695 51.5770 main 320 320 _____P___OO___ -1 -21.1084 51.5310 99 -21.2000 51.6000 TC 35 -21.2000 51.6000 2 3 158
1912017S12054 1912 3 SI MM NOT_NAMED 1912-01-22 21:00:00 TS -21.3125 51.6271 main 325 325 _____P___PP___ -1 -21.2581 51.6002 99 -21.3500 51.6501 TC 35 -21.3294 51.6309 2 3 161
1912017S12054 1912 3 SI MM NOT_NAMED 1912-01-23 00:00:00 TS -21.4612 51.6885 main 343 343 _____P___OP___ -1 -21.4217 51.6970 99 -21.5000 51.7000 TC 35 -21.4620 51.6685 2 3 155
1912017S12054 1912 3 SI MM NOT_NAMED 1912-01-23 03:00:00 TS -21.6142 51.7792 main 356 348 _____P___PP___ -1 -21.6015 51.8281 99 -21.6274 51.7627 TC 35 -21.6136 51.7468 2 4 146
1912017S12054 1912 3 SI MM NOT_NAMED 1912-01-23 06:00:00 TS -21.8000 51.9333 reunion main 350 326 _____O___OO___ -1 -21.8000 52.0000 99 9.90000 -21.8000 51.9000 TC 35 -21.8000 51.9000 2 6 140
1912017S12054 1912 3 SI MM NOT_NAMED 1912-01-23 09:00:00 TS -22.0510 52.1800 main 329 309 _____P___PP___ -1 -22.0244 52.2107 99 -22.0850 52.1549 TC 35 -22.0435 52.1744 2 7 136
1912017S12054 1912 3 SI MM NOT_NAMED 1912-01-23 12:00:00 TS -22.3296 52.4951 main 309 290 _____P___OP___ -1 -22.2682 52.4612 99 -22.4000 52.5000 TC 35 -22.3206 52.5242 2 8 131
1912017S12054 1912 3 SI MM NOT_NAMED 1912-01-23 15:00:00 TS -22.5990 52.8533 main 286 273 _____P___PP___ -1 -22.5271 52.7479 99 -22.6576 52.9000 TC 35 -22.6123 52.9120 2 9 129
1912017S12054 1912 3 SI MM NOT_NAMED 1912-01-23 18:00:00 TS -22.8656 53.2225 main 280 272 _____P___OO___ -1 -22.7969 53.0674 99 -22.9000 53.3000 TC 35 -22.9000 53.3000 2 8 129
1912017S12054 1912 3 SI MM NOT_NAMED 1912-01-23 21:00:00 TS -23.1224 53.5429 main 273 266 _____P___PP___ -1 -23.0732 53.4160 99 -23.1498 53.6077 TC 35 -23.1443 53.6050 2 8 131
1912017S12054 1912 3 SI MM NOT_NAMED 1912-01-24 00:00:00 TS -23.3786 53.8656 main 275 270 _____P___OP___ -1 -23.3520 53.7901 99 -23.4000 53.9000 TC 35 -23.3839 53.9068 2 8 130
1912017S12054 1912 3 SI MM NOT_NAMED 1912-01-24 03:00:00 TS -23.6318 54.2122 main 280 280 _____P___PP___ -1 -23.6290 54.1860 99 -23.6348 54.2204 TC 35 -23.6316 54.2302 2 9 128
1912017S12054 1912 3 SI MM NOT_NAMED 1912-01-24 06:00:00 TS -23.9000 54.6000 reunion main 297 294 _____O___OO___ -1 -23.9000 54.6000 99 9.90000 -23.9000 54.6000 TC 35 -23.9000 54.6000 2 10 127
1912017S12054 1912 3 SI MM NOT_NAMED 1912-01-24 09:00:00 TS -24.2154 55.0651 main 317 317 _____P___PP___ -1 -24.1755 55.0571 99 -24.2425 55.0774 TC 35 -24.2283 55.0608 2 11 126
1912017S12054 1912 3 SI MM NOT_NAMED 1912-01-24 12:00:00 TS -24.5411 55.5706 main 346 346 _____P___OP___ -1 -24.4500 55.5434 99 -24.6000 55.6000 TC 35 -24.5732 55.5685 2 11 124
1912017S12054 1912 3 SI MM NOT_NAMED 1912-01-24 15:00:00 TS -24.8491 56.0842 main 383 383 _____P___PP___ -1 -24.7184 56.0453 99 -24.9225 56.1151 TC 35 -24.9064 56.0921 2 11 122
1912017S12054 1912 3 SI MM NOT_NAMED 1912-01-24 18:00:00 TS -25.1252 56.5830 main 425 425 _____P___OO___ -1 -24.9757 56.5491 99 -25.2000 56.6000 TC 35 -25.2000 56.6000 2 10 120
1912017S12054 1912 3 SI MM NOT_NAMED 1912-01-24 21:00:00 TS -25.3577 57.0386 main 469 469 _____P___PP___ -1 -25.2170 57.0407 99 -25.4222 57.0078 TC 35 -25.4339 57.0672 2 9 117
1912017S12054 1912 3 SI MM NOT_NAMED 1912-01-25 00:00:00 TS -25.5404 57.4718 main 497 497 _____P___OP___ -1 -25.4378 57.5059 99 -25.6000 57.4000 TC 35 -25.6175 57.4982 2 8 114
1912017S12054 1912 3 SI MM NOT_NAMED 1912-01-25 03:00:00 TS -25.6975 57.9002 main 534 534 _____P___PP___ -1 -25.6336 57.9305 99 -25.7554 57.8347 TC 35 -25.7674 57.9050 2 8 111
1912017S12054 1912 3 SI MM NOT_NAMED 1912-01-25 06:00:00 TS -25.8333 58.3000 reunion main 563 563 _____O___OO___ -1 -25.8000 58.3000 99 9.90000 -25.9000 58.3000 TC 35 -25.9000 58.3000 2 7 111
1912017S12054 1912 3 SI MM NOT_NAMED 1912-01-25 09:00:00 NR -25.9344 58.6037 main 587 587 _____P________ -1 -25.9344 58.6037 99 TC 2 5 113
1912017S12054 1912 3 SI MM NOT_NAMED 1912-01-25 12:00:00 NR -26.0397 58.8461 main 607 607 _____P________ -1 -26.0397 58.8461 99 2 4 116
1912017S12054 1912 3 SI MM NOT_NAMED 1912-01-25 15:00:00 NR -26.1204 59.0359 main 627 627 _____P________ -1 -26.1204 59.0359 99 2 3 115
1912017S12054 1912 3 SI MM NOT_NAMED 1912-01-25 18:00:00 NR -26.1806 59.1817 main 647 647 _____P________ -1 -26.1806 59.1817 99 3 114
1912017S12054 1912 3 SI MM NOT_NAMED 1912-01-25 21:00:00 NR -26.2246 59.2922 main 653 653 _____P________ -1 -26.2246 59.2922 99 2 114
1912017S12054 1912 3 SI MM NOT_NAMED 1912-01-26 00:00:00 NR -26.2565 59.3762 main 667 667 _____P________ -1 -26.2565 59.3762 99 1 112
1912017S12054 1912 3 SI MM NOT_NAMED 1912-01-26 03:00:00 NR -26.2803 59.4425 main 667 667 _____P________ -1 -26.2803 59.4425 99 1 112
1912017S12054 1912 3 SI MM NOT_NAMED 1912-01-26 06:00:00 NR -26.3000 59.5000 reunion main 673 _____O________ -1 -26.3000 59.5000 99 9.90000 1 111

IBTrACS Databaseについて

本データベースは、米国NOAAが公開する1842年以降の世界の熱帯低気圧のベストトラックデータアーカイブInternational Best Track Archive for Climate Stewardship (IBTrACS)を、ウェブで閲覧しやすい形式に変換したものです。

最終更新日:2021-10-21